Time;durP1;ratioP1;P1;durP2;ratioP2;P2;SDS_P1;SDS_P2;PMS_P1;PMS_P2;Temp;Humidity;BMP_temperature;BMP_pressure;BME280_temperature;BME280_humidity;BME280_pressure;Samples;Min_cycle;Max_cycle;Signal;HPM_P1;HPM_P2
2023/10/11 00:00:57;;;;;;;5.60;2.60;;;;;;;0.93;100.00;101050.29;109294;1253;58148;-55
2023/10/11 00:05:53;;;;;;;6.40;2.40;;;;;;;0.85;100.00;101053.54;109317;1253;73975;-54
2023/10/11 00:08:25;;;;;;;5.00;2.70;;;;;;;0.79;100.00;101056.19;109158;1254;65667;-55
2023/10/11 00:10:55;;;;;;;4.60;2.70;;;;;;;0.73;100.00;101058.46;109238;1253;72633;-55
2023/10/11 00:13:33;;;;;;;6.10;2.60;;;;;;;0.69;100.00;101061.29;109195;1254;60163;-55
2023/10/11 00:16:09;;;;;;;5.50;2.60;;;;;;;0.66;100.00;101062.85;109240;1252;60096;-54
2023/10/11 00:18:38;;;;;;;5.90;2.60;;;;;;;0.63;100.00;101067.79;109281;1252;73979;-55
2023/10/11 00:21:15;;;;;;;4.30;2.30;;;;;;;0.63;100.00;101070.20;109218;1254;65685;-55
2023/10/11 00:23:46;;;;;;;6.80;2.80;;;;;;;0.64;100.00;101074.60;108853;1253;383977;-55
2023/10/11 00:26:14;;;;;;;5.10;3.00;;;;;;;0.64;100.00;101081.43;109215;1253;61453;-55
2023/10/11 00:28:48;;;;;;;5.30;2.70;;;;;;;0.62;100.00;101080.84;109066;1253;59894;-55
2023/10/11 00:31:17;;;;;;;5.60;2.80;;;;;;;0.59;100.00;101087.94;109105;1253;71677;-55
2023/10/11 00:33:46;;;;;;;5.40;2.60;;;;;;;0.54;100.00;101087.76;109287;1253;65772;-58
2023/10/11 00:36:15;;;;;;;5.50;2.70;;;;;;;0.48;100.00;101088.60;109199;1252;73368;-56
2023/10/11 00:38:48;;;;;;;5.10;2.80;;;;;;;0.46;100.00;101095.61;109072;1254;60958;-54
2023/10/11 00:41:19;;;;;;;4.70;2.70;;;;;;;0.44;100.00;101095.70;109142;1253;58897;-55
2023/10/11 00:43:52;;;;;;;5.40;2.60;;;;;;;0.42;100.00;101099.63;109217;1253;73944;-55
2023/10/11 00:46:36;;;;;;;4.70;2.50;;;;;;;0.39;100.00;101101.66;109321;1253;65737;-55
2023/10/11 00:49:11;;;;;;;5.80;2.60;;;;;;;0.35;100.00;101106.55;109222;1253;72738;-55
2023/10/11 00:51:41;;;;;;;6.40;3.00;;;;;;;0.33;100.00;101109.27;109242;1252;60388;-55
2023/10/11 00:54:15;;;;;;;4.60;2.10;;;;;;;0.31;100.00;101116.36;109339;1252;59140;-55
2023/10/11 00:56:44;;;;;;;4.40;2.30;;;;;;;0.25;100.00;101122.73;109217;1253;73956;-55
2023/10/11 00:59:15;;;;;;;4.90;2.60;;;;;;;0.20;100.00;101125.27;109181;1254;65865;-55
2023/10/11 01:01:44;;;;;;;5.10;2.70;;;;;;;0.17;100.00;101128.67;109260;1253;72724;-55
2023/10/11 01:04:15;;;;;;;5.50;2.60;;;;;;;0.15;100.00;101132.05;109263;1253;60918;-55
2023/10/11 01:06:48;;;;;;;5.60;2.50;;;;;;;0.13;100.00;101136.98;109255;1253;60049;-55
2023/10/11 01:09:17;;;;;;;4.40;2.40;;;;;;;0.09;100.00;101143.55;109092;1252;73965;-55
2023/10/11 01:11:47;;;;;;;4.80;2.60;;;;;;;0.07;100.00;101152.70;109304;1253;66347;-55
2023/10/11 01:14:15;;;;;;;4.10;2.00;;;;;;;0.05;100.00;101153.04;109235;1253;72637;-55
2023/10/11 01:16:43;;;;;;;4.80;2.50;;;;;;;0.02;100.00;101156.27;109255;1253;60979;-55
2023/10/11 01:19:11;;;;;;;5.70;2.70;;;;;;;-0.01;100.00;101159.68;109237;1254;60104;-58
2023/10/11 01:21:39;;;;;;;4.80;2.40;;;;;;;-0.03;100.00;101160.48;109228;1254;72652;-55
2023/10/11 01:24:10;;;;;;;4.00;2.00;;;;;;;-0.05;100.00;101164.88;109254;1253;66286;-55
2023/10/11 01:26:38;;;;;;;7.40;2.40;;;;;;;-0.07;100.00;101164.33;109137;1256;72686;-55
2023/10/11 01:29:05;;;;;;;5.10;2.40;;;;;;;-0.08;100.00;101167.44;109266;1253;59356;-57
2023/10/11 01:31:34;;;;;;;4.10;2.00;;;;;;;-0.10;100.00;101171.16;109257;1253;60084;-55
2023/10/11 01:34:02;;;;;;;5.70;3.00;;;;;;;-0.12;100.00;101176.25;109231;1252;73085;-55
2023/10/11 01:36:30;;;;;;;4.20;2.30;;;;;;;-0.14;100.00;101176.04;109143;1253;67404;-55
2023/10/11 01:39:05;;;;;;;4.60;2.50;;;;;;;-0.16;100.00;101177.02;109107;1253;71479;-55
2023/10/11 01:41:33;;;;;;;4.70;2.40;;;;;;;-0.19;100.00;101182.46;109100;1252;59612;-55
2023/10/11 01:44:00;;;;;;;4.90;2.20;;;;;;;-0.23;100.00;101185.08;109323;1253;59134;-55
2023/10/11 01:46:28;;;;;;;4.50;2.50;;;;;;;-0.27;100.00;101188.41;109327;1252;73857;-56
2023/10/11 01:48:59;;;;;;;5.20;2.80;;;;;;;-0.31;100.00;101190.86;109252;1253;66961;-57
2023/10/11 01:51:27;;;;;;;3.50;1.90;;;;;;;-0.33;100.00;101195.09;109346;1253;73062;-55
2023/10/11 01:54:04;;;;;;;4.30;2.30;;;;;;;-0.36;100.00;101198.66;109283;1253;58205;-55
2023/10/11 01:56:32;;;;;;;4.50;2.30;;;;;;;-0.39;100.00;101202.94;109294;1253;59084;-55
2023/10/11 01:59:01;;;;;;;4.30;2.00;;;;;;;-0.41;100.00;101210.38;109245;1253;73977;-57
2023/10/11 02:01:38;;;;;;;4.70;2.20;;;;;;;-0.44;100.00;101209.52;109127;1252;67024;-54
2023/10/11 02:04:20;;;;;;;4.60;2.00;;;;;;;-0.46;100.00;101213.95;109301;1253;73924;-55
2023/10/11 02:06:48;;;;;;;3.80;2.00;;;;;;;-0.51;100.00;101214.05;109338;1253;58238;-55
2023/10/11 02:09:20;;;;;;;6.50;2.80;;;;;;;-0.53;100.00;101216.73;109352;1253;60087;-55
2023/10/11 02:11:52;;;;;;;4.00;2.10;;;;;;;-0.55;100.00;101222.14;109422;1253;73878;-55
2023/10/11 02:14:22;;;;;;;4.80;2.50;;;;;;;-0.58;100.00;101221.09;109271;1253;67058;-55
2023/10/11 02:16:53;;;;;;;4.20;2.50;;;;;;;-0.59;100.00;101225.30;109219;1253;71458;-57
2023/10/11 02:19:23;;;;;;;4.30;2.10;;;;;;;-0.62;100.00;101230.23;109245;1253;59320;-56
2023/10/11 02:21:53;;;;;;;4.20;1.90;;;;;;;-0.64;100.00;101235.82;109283;1253;58072;-55
2023/10/11 02:24:25;;;;;;;3.70;2.10;;;;;;;-0.65;100.00;101242.36;109370;1253;74180;-55
2023/10/11 02:26:54;;;;;;;6.50;2.30;;;;;;;-0.65;100.00;101239.46;109201;1253;65647;-55
2023/10/11 02:29:25;;;;;;;5.50;2.60;;;;;;;-0.64;100.00;101241.27;109135;1253;71419;-55
2023/10/11 02:31:54;;;;;;;5.30;2.40;;;;;;;-0.61;100.00;101246.88;109315;1253;61001;-55
2023/10/11 02:34:23;;;;;;;4.70;2.20;;;;;;;-0.59;100.00;101251.54;109397;1252;60513;-55
2023/10/11 02:37:11;;;;;;;4.00;1.90;;;;;;;-0.57;100.00;101256.21;109261;1253;73934;-57
2023/10/11 02:39:45;;;;;;;4.90;2.40;;;;;;;-0.55;100.00;101263.27;109324;1253;67032;-55
2023/10/11 02:42:19;;;;;;;5.40;2.60;;;;;;;-0.54;100.00;101270.36;109365;1252;72790;-55
2023/10/11 02:44:48;;;;;;;4.20;2.10;;;;;;;-0.55;100.00;101274.34;109095;1253;58566;-55
2023/10/11 02:47:22;;;;;;;4.50;2.40;;;;;;;-0.58;100.00;101280.17;109462;1253;60072;-55
2023/10/11 02:49:53;;;;;;;7.20;2.60;;;;;;;-0.62;100.00;101290.48;109330;1252;73830;-55
2023/10/11 02:52:29;;;;;;;5.00;2.40;;;;;;;-0.67;100.00;101295.71;109220;1253;65719;-56
2023/10/11 02:54:59;;;;;;;5.10;2.50;;;;;;;-0.71;100.00;101297.66;109324;1253;71524;-55
2023/10/11 02:57:27;;;;;;;4.70;2.60;;;;;;;-0.75;100.00;101301.77;109234;1253;59399;-55
2023/10/11 02:59:56;;;;;;;4.00;2.00;;;;;;;-0.77;100.00;101306.83;109218;1253;60106;-55
2023/10/11 03:02:29;;;;;;;4.00;2.30;;;;;;;-0.80;100.00;101307.35;109041;1253;73284;-55
2023/10/11 03:05:01;;;;;;;6.50;3.20;;;;;;;-0.83;100.00;101311.44;109148;1253;67037;-55
2023/10/11 03:07:33;;;;;;;5.40;2.70;;;;;;;-0.85;100.00;101312.08;109081;1253;72452;-55
2023/10/11 03:10:03;;;;;;;5.20;2.40;;;;;;;-0.86;100.00;101315.52;109007;1253;59671;-55
2023/10/11 03:12:31;;;;;;;5.50;2.40;;;;;;;-0.87;100.00;101320.54;109138;1253;58793;-55
2023/10/11 03:15:08;;;;;;;5.10;2.40;;;;;;;-0.89;100.00;101323.71;109244;1253;71895;-55
2023/10/11 03:17:43;;;;;;;5.80;3.10;;;;;;;-0.92;100.00;101329.13;109341;1253;67144;-55
2023/10/11 03:20:35;;;;;;;5.30;2.70;;;;;;;-0.93;100.00;101330.09;109332;1253;71472;-56
2023/10/11 03:23:10;;;;;;;5.60;2.90;;;;;;;-0.96;100.00;101336.87;109289;1253;60960;-55
2023/10/11 03:25:38;;;;;;;5.70;2.90;;;;;;;-0.97;100.00;101340.55;109349;1255;60950;-55
2023/10/11 03:28:06;;;;;;;4.60;2.50;;;;;;;-0.97;100.00;101340.89;109362;1253;73338;-55
2023/10/11 03:30:38;;;;;;;6.70;3.10;;;;;;;-0.98;100.00;101342.98;109434;1253;65690;-55
2023/10/11 03:33:07;;;;;;;6.70;2.90;;;;;;;-0.99;100.00;101345.52;109281;1253;72739;-57
2023/10/11 03:35:38;;;;;;;6.00;3.00;;;;;;;-0.99;100.00;101352.71;109341;1253;60306;-55
2023/10/11 03:38:17;;;;;;;6.30;2.80;;;;;;;-0.98;100.00;101359.70;109274;1253;60051;-55
2023/10/11 03:41:28;;;;;;;6.70;3.10;;;;;;;-0.98;100.00;101365.30;109347;1253;72550;-55
2023/10/11 03:43:40;;;;;;;7.90;3.80;;;;;;;-0.96;100.00;101372.70;109229;1253;66959;-55
2023/10/11 03:46:10;;;;;;;6.20;3.70;;;;;;;-0.95;100.00;101382.55;109275;1253;72714;-55
2023/10/11 03:48:44;;;;;;;6.40;3.40;;;;;;;-0.93;100.00;101388.59;109224;1253;59778;-57
2023/10/11 03:51:12;;;;;;;5.20;3.20;;;;;;;-0.83;100.00;101392.63;109120;1253;58806;-55
2023/10/11 03:53:39;;;;;;;7.10;3.20;;;;;;;-0.63;100.00;101398.42;109093;1253;73934;-55
2023/10/11 03:56:07;;;;;;;7.00;3.40;;;;;;;-0.38;100.00;101401.16;109055;1253;66950;-55
2023/10/11 03:58:37;;;;;;;6.80;4.00;;;;;;;-0.10;100.00;101402.65;109270;1253;72693;-57
2023/10/11 04:03:40;;;;;;;6.30;3.10;;;;;;;0.64;100.00;101418.05;109307;1253;58730;-55
2023/10/11 04:06:14;;;;;;;9.40;3.20;;;;;;;1.04;100.00;101415.70;109318;1253;73460;-56
2023/10/11 04:08:44;;;;;;;5.60;2.90;;;;;;;1.43;100.00;101415.18;109191;1253;66680;-56
2023/10/11 04:11:19;;;;;;;5.70;3.20;;;;;;;1.76;100.00;101416.17;109260;1253;70979;-56
2023/10/11 04:13:46;;;;;;;6.00;3.70;;;;;;;2.04;100.00;101416.75;109234;1254;59176;-55
2023/10/11 04:16:17;;;;;;;9.40;3.50;;;;;;;2.32;100.00;101419.58;109243;1251;58820;-58
2023/10/11 04:18:45;;;;;;;6.30;3.00;;;;;;;2.68;100.00;101417.15;109238;1253;72572;-55
2023/10/11 04:21:16;;;;;;;5.30;2.80;;;;;;;3.12;100.00;101420.20;109220;1253;67147;-56
2023/10/11 04:23:47;;;;;;;4.90;2.70;;;;;;;3.58;100.00;101424.52;109210;1253;72721;-55
2023/10/11 04:26:35;;;;;;;5.40;2.90;;;;;;;3.99;100.00;101426.08;109249;1253;60884;-58
2023/10/11 04:29:06;;;;;;;4.40;2.60;;;;;;;4.10;100.00;101425.36;109353;1252;58744;-55
2023/10/11 04:34:31;;;;;;;5.40;3.10;;;;;;;3.78;100.00;101419.81;109220;1253;65327;-57
2023/10/11 04:37:04;;;;;;;4.90;2.80;;;;;;;3.53;100.00;101423.70;109093;1254;72711;-56
2023/10/11 04:39:43;;;;;;;4.90;2.90;;;;;;;3.36;100.00;101425.39;109319;1253;58125;-57
2023/10/11 04:42:11;;;;;;;7.00;3.40;;;;;;;3.28;100.00;101431.61;109241;1253;59160;-57
2023/10/11 04:44:54;;;;;;;6.50;3.20;;;;;;;3.22;100.00;101433.41;109253;1253;73930;-57
2023/10/11 04:47:27;;;;;;;6.20;3.30;;;;;;;3.19;100.00;101429.37;109228;1253;66905;-57
2023/10/11 04:49:55;;;;;;;5.00;2.80;;;;;;;3.19;100.00;101432.46;109227;1253;72746;-56
2023/10/11 04:52:23;;;;;;;5.80;3.30;;;;;;;3.15;100.00;101428.54;109252;1253;58145;-56
2023/10/11 04:54:54;;;;;;;5.80;3.50;;;;;;;3.13;100.00;101431.33;109275;1253;60028;-57
2023/10/11 04:57:49;;;;;;;5.40;3.40;;;;;;;3.09;100.00;101432.23;109195;1258;73107;-57
2023/10/11 05:00:18;;;;;;;5.60;2.90;;;;;;;3.06;100.00;101443.12;109299;1253;66390;-56
2023/10/11 05:02:58;;;;;;;6.10;3.80;;;;;;;3.02;100.00;101452.30;109222;1253;72733;-57
2023/10/11 05:05:27;;;;;;;7.40;3.50;;;;;;;3.05;100.00;101453.77;109373;1253;58745;-55
2023/10/11 05:08:05;;;;;;;5.20;3.00;;;;;;;3.07;100.00;101453.34;109239;1253;58763;-57
2023/10/11 05:10:43;;;;;;;6.30;3.40;;;;;;;3.09;100.00;101457.14;109166;1255;73939;-56
2023/10/11 05:13:13;;;;;;;6.30;3.80;;;;;;;3.13;100.00;101462.52;109243;1253;66926;-56
2023/10/11 05:15:47;;;;;;;6.00;3.60;;;;;;;3.21;100.00;101463.54;109239;1253;71407;-56
2023/10/11 05:18:24;;;;;;;6.00;3.40;;;;;;;3.33;100.00;101465.44;109093;1254;58106;-57
2023/10/11 05:21:00;;;;;;;6.20;3.40;;;;;;;3.47;100.00;101467.27;109231;1253;60102;-55
2023/10/11 05:23:51;;;;;;;5.60;3.30;;;;;;;3.60;100.00;101464.40;109232;1253;73018;-55
2023/10/11 05:29:23;;;;;;;6.00;3.30;;;;;;;3.94;100.00;101473.53;109170;1254;72651;-56
2023/10/11 05:34:51;;;;;;;4.60;2.90;;;;;;;4.36;100.00;101484.95;109227;1254;60529;-58
2023/10/11 05:51:10;;;;;;;5.80;3.20;;;;;;;8.24;100.00;101485.50;109414;1253;73833;-55
2023/10/11 05:53:40;;;;;;;4.40;2.50;;;;;;;8.87;100.00;101478.20;109389;1254;67074;-57
2023/10/11 05:56:20;;;;;;;4.20;2.60;;;;;;;9.45;100.00;101464.98;109406;1253;72714;-55
2023/10/11 05:58:52;;;;;;;4.70;2.70;;;;;;;9.98;100.00;101457.54;109182;1254;60334;-53
2023/10/11 06:01:21;;;;;;;3.90;2.50;;;;;;;10.49;100.00;101453.27;109400;1253;58738;-58
2023/10/11 06:03:52;;;;;;;3.90;2.50;;;;;;;11.00;100.00;101453.48;109431;1253;72584;-54
2023/10/11 06:06:38;;;;;;;4.00;2.40;;;;;;;11.53;100.00;101455.55;109461;1252;67410;-54
2023/10/11 06:09:15;;;;;;;4.60;2.60;;;;;;;12.15;100.00;101456.83;109363;1253;72626;-58
2023/10/11 06:11:48;;;;;;;3.80;2.30;;;;;;;12.77;100.00;101456.64;109236;1253;60166;-54
2023/10/11 06:14:17;;;;;;;4.10;2.40;;;;;;;13.16;100.00;101461.04;109224;1253;58800;-57
2023/10/11 06:16:49;;;;;;;5.70;2.40;;;;;;;13.60;100.00;101456.98;109257;1253;72101;-55
2023/10/11 06:19:17;;;;;;;4.30;1.70;;;;;;;14.09;100.00;101455.36;109106;1253;66114;-54
2023/10/11 06:21:58;;;;;;;3.50;2.40;;;;;;;14.58;100.00;101458.67;109265;1254;71441;-55
2023/10/11 06:24:30;;;;;;;2.80;1.90;;;;;;;14.92;97.10;101454.02;109155;1253;60034;-56
2023/10/11 06:29:39;;;;;;;3.00;1.80;;;;;;;15.61;80.45;101451.64;109147;1253;73066;-55
2023/10/11 06:32:11;;;;;;;2.40;1.50;;;;;;;15.85;71.60;101449.46;109398;1252;66229;-55
2023/10/11 06:34:50;;;;;;;3.40;2.10;;;;;;;16.12;68.64;101456.63;109269;1253;72757;-54
2023/10/11 06:37:23;;;;;;;2.80;1.70;;;;;;;16.57;64.64;101466.70;109385;1253;58779;-54
2023/10/11 06:42:23;;;;;;;2.90;1.90;;;;;;;17.11;50.69;101470.27;109324;1253;74704;-54
2023/10/11 06:44:54;;;;;;;2.50;1.40;;;;;;;17.23;48.09;101470.15;109407;1256;66939;-55
2023/10/11 06:47:22;;;;;;;2.20;1.40;;;;;;;17.13;43.92;101471.85;109372;1253;72721;-56
2023/10/11 06:49:54;;;;;;;2.30;1.50;;;;;;;16.99;44.15;101475.64;109223;1252;58963;-55
2023/10/11 06:52:25;;;;;;;2.30;1.40;;;;;;;17.20;43.40;101476.94;109141;1254;59000;-55
2023/10/11 06:55:14;;;;;;;2.50;1.70;;;;;;;17.42;44.47;101483.39;109368;1253;75204;-55
2023/10/11 06:57:50;;;;;;;2.70;1.90;;;;;;;17.63;46.11;101487.27;109181;1253;66111;-58
2023/10/11 07:00:29;;;;;;;3.00;2.00;;;;;;;17.75;45.02;101489.45;109224;1253;72747;-55
2023/10/11 07:05:40;;;;;;;2.90;1.90;;;;;;;17.67;42.20;101486.30;109215;1256;60251;-55
2023/10/11 07:08:09;;;;;;;2.50;1.50;;;;;;;17.57;41.49;101493.05;109297;1257;74634;-55
2023/10/11 07:10:45;;;;;;;2.70;1.60;;;;;;;17.44;41.27;101493.82;109203;1254;65041;-55
2023/10/11 07:13:13;;;;;;;3.00;1.80;;;;;;;17.27;40.88;101495.14;109170;1253;71240;-56
2023/10/11 07:15:48;;;;;;;2.50;1.40;;;;;;;17.23;40.60;101496.82;109180;1253;59275;-55
2023/10/11 07:18:27;;;;;;;2.50;1.60;;;;;;;17.48;40.11;101494.08;109289;1251;59297;-55
2023/10/11 07:20:58;;;;;;;2.60;1.70;;;;;;;17.67;39.91;101492.09;109168;1256;73437;-55
2023/10/11 07:23:35;;;;;;;;;;;;;;;17.81;39.86;101490.62;109265;1253;66919;-55
2023/10/11 07:26:23;;;;;;;3.80;1.40;;;;;;;18.06;39.26;101484.76;109250;1253;71801;-55
2023/10/11 07:28:52;;;;;;;2.60;1.20;;;;;;;18.30;37.69;101481.39;109250;1253;60100;-56
2023/10/11 07:31:21;;;;;;;2.70;1.00;;;;;;;18.47;36.93;101483.69;109252;1252;59436;-56
2023/10/11 07:33:55;;;;;;;2.30;1.30;;;;;;;18.71;36.32;101485.20;109101;1253;72971;-56
2023/10/11 07:36:25;;;;;;;1.90;0.90;;;;;;;18.90;35.06;101483.46;109192;1253;65180;-56
2023/10/11 07:38:56;;;;;;;1.90;1.10;;;;;;;18.91;34.19;101483.88;109368;1253;71430;-55
2023/10/11 07:41:28;;;;;;;1.80;1.10;;;;;;;18.85;34.03;101488.97;109239;1252;59045;-55
2023/10/11 07:43:57;;;;;;;2.90;1.10;;;;;;;18.86;33.99;101487.83;109185;1252;59074;-56
2023/10/11 07:46:24;;;;;;;2.40;1.10;;;;;;;18.94;34.06;101489.67;109271;1253;74711;-56
2023/10/11 07:49:01;;;;;;;1.90;0.90;;;;;;;18.90;32.91;101490.01;109233;1253;65998;-56
2023/10/11 07:51:30;;;;;;;2.90;1.60;;;;;;;18.77;32.72;101492.48;109243;1253;71793;-56
2023/10/11 07:53:58;;;;;;;1.70;0.90;;;;;;;18.59;32.67;101495.45;109161;1253;59012;-58
2023/10/11 07:56:25;;;;;;;1.60;1.00;;;;;;;18.45;32.41;101500.63;109418;1253;59094;-57
2023/10/11 07:58:56;;;;;;;2.20;1.00;;;;;;;18.35;32.80;101505.52;109361;1253;75224;-56
2023/10/11 08:01:30;;;;;;;2.30;1.30;;;;;;;18.18;32.58;101508.10;109371;1253;65677;-56
2023/10/11 08:03:58;;;;;;;2.40;1.10;;;;;;;18.17;32.42;101508.15;109157;1253;71439;-57
2023/10/11 08:06:28;;;;;;;2.60;1.20;;;;;;;18.17;32.47;101514.60;109446;1256;59150;-56
2023/10/11 08:08:59;;;;;;;2.00;1.00;;;;;;;18.25;31.90;101511.73;109358;1251;60085;-55
2023/10/11 08:11:28;;;;;;;2.60;1.10;;;;;;;18.17;30.77;101512.77;109488;1251;74705;-55
2023/10/11 08:14:03;;;;;;;2.00;1.00;;;;;;;17.69;30.10;101518.80;109437;1251;66069;-55
2023/10/11 08:16:33;;;;;;;1.50;0.90;;;;;;;17.16;30.82;101518.52;109516;1251;72759;-55
2023/10/11 08:19:01;;;;;;;3.40;1.00;;;;;;;17.09;31.61;101521.33;109418;1253;59034;-54
2023/10/11 08:21:30;;;;;;;2.00;1.10;;;;;;;17.25;32.39;101529.09;109438;1251;60085;-54
2023/10/11 08:23:59;;;;;;;1.90;1.10;;;;;;;17.36;31.88;101520.73;109437;1251;74711;-55
2023/10/11 08:26:32;;;;;;;2.20;1.00;;;;;;;17.39;31.48;101522.04;109453;1251;67027;-54
2023/10/11 08:29:14;;;;;;;4.70;1.60;;;;;;;17.44;31.52;101529.30;109295;1253;72743;-55
2023/10/11 08:31:44;;;;;;;3.30;1.00;;;;;;;17.52;32.13;101528.59;109356;1253;58961;-56
2023/10/11 08:34:14;;;;;;;2.30;0.90;;;;;;;17.43;31.48;101535.23;109392;1253;59073;-55
2023/10/11 08:36:43;;;;;;;2.40;1.20;;;;;;;16.99;30.90;101538.36;109462;1251;75747;-55
2023/10/11 08:39:13;;;;;;;2.80;1.20;;;;;;;16.41;31.20;101541.36;109500;1251;65627;-54
2023/10/11 08:41:43;;;;;;;2.10;1.30;;;;;;;15.82;31.91;101546.48;109434;1251;72068;-55
2023/10/11 08:44:20;;;;;;;2.40;0.90;;;;;;;15.48;32.40;101545.54;109337;1253;59436;-54
2023/10/11 08:46:50;;;;;;;2.10;1.00;;;;;;;15.39;33.05;101544.52;109188;1252;59064;-55
2023/10/11 08:49:17;;;;;;;3.70;0.90;;;;;;;15.45;33.80;101542.05;109153;1253;73417;-57
2023/10/11 08:51:48;;;;;;;2.00;0.80;;;;;;;15.50;33.22;101538.08;109415;1251;68232;-54
2023/10/11 08:54:17;;;;;;;2.30;0.70;;;;;;;15.45;32.71;101542.58;109170;1251;73235;-56
2023/10/11 08:56:54;;;;;;;1.80;0.90;;;;;;;15.38;32.64;101543.55;109445;1251;60107;-55
2023/10/11 08:59:25;;;;;;;1.90;0.90;;;;;;;15.42;32.85;101544.16;109411;1251;58941;-56
2023/10/11 09:01:53;;;;;;;2.20;1.00;;;;;;;15.51;33.21;101544.96;109439;1251;76230;-56
2023/10/11 09:04:27;;;;;;;3.30;1.00;;;;;;;15.76;33.37;101535.81;109320;1253;65650;-56
2023/10/11 09:06:57;;;;;;;2.30;1.00;;;;;;;15.97;32.08;101529.64;109157;1253;72715;-55
2023/10/11 09:09:33;;;;;;;1.80;0.80;;;;;;;15.87;32.14;101530.34;109167;1253;60107;-59
2023/10/11 09:12:20;;;;;;;1.60;0.70;;;;;;;15.81;32.11;101534.34;109207;1253;58914;-54
2023/10/11 09:15:15;;;;;;;1.70;0.70;;;;;;;15.74;31.17;101533.42;109240;1253;73824;-55
2023/10/11 09:17:44;;;;;;;2.20;1.00;;;;;;;15.50;31.18;101531.81;109148;1253;66168;-55
2023/10/11 09:20:23;;;;;;;2.10;1.00;;;;;;;15.26;31.75;101541.48;109180;1253;72715;-55
2023/10/11 09:22:52;;;;;;;1.50;0.60;;;;;;;15.17;32.67;101543.43;109257;1251;60723;-56
2023/10/11 09:25:33;;;;;;;3.70;0.80;;;;;;;15.42;33.35;101542.17;109429;1251;59017;-54
2023/10/11 09:28:04;;;;;;;2.10;1.10;;;;;;;15.91;32.55;101542.89;109432;1251;74724;-55
2023/10/11 09:30:32;;;;;;;2.10;0.70;;;;;;;16.16;31.43;101542.41;109326;1251;67584;-55
2023/10/11 09:32:59;;;;;;;2.30;1.10;;;;;;;16.25;31.11;101541.31;109433;1251;72653;-55
2023/10/11 09:35:27;;;;;;;1.70;0.70;;;;;;;16.25;30.81;101547.88;109431;1251;60625;-56
2023/10/11 09:37:56;;;;;;;1.50;0.60;;;;;;;16.18;30.83;101543.52;109473;1251;58912;-56
2023/10/11 09:40:33;;;;;;;3.00;1.10;;;;;;;16.09;30.65;101544.20;109431;1251;74663;-56
2023/10/11 09:43:01;;;;;;;2.00;0.70;;;;;;;15.84;30.75;101542.09;109502;1251;68251;-56
2023/10/11 09:45:42;;;;;;;2.20;0.80;;;;;;;15.63;31.27;101543.94;109425;1251;74741;-56
2023/10/11 09:48:18;;;;;;;2.90;1.10;;;;;;;15.67;31.46;101538.38;109420;1251;62227;-59
2023/10/11 09:50:46;;;;;;;2.20;0.90;;;;;;;15.73;31.19;101541.66;109454;1251;61224;-56
2023/10/11 09:53:14;;;;;;;2.00;0.70;;;;;;;15.80;31.69;101544.35;109465;1251;76793;-55
2023/10/11 09:55:52;;;;;;;3.00;0.80;;;;;;;15.93;31.34;101539.67;109488;1251;68855;-56
2023/10/11 09:58:41;;;;;;;3.30;1.50;;;;;;;16.03;31.54;101545.48;109220;1254;71594;-55
2023/10/11 10:01:12;;;;;;;2.80;1.30;;;;;;;16.19;31.04;101539.60;109391;1253;61533;-55
2023/10/11 10:03:47;;;;;;;2.40;0.90;;;;;;;16.29;31.26;101542.23;109376;1251;59333;-55
2023/10/11 10:06:18;;;;;;;2.50;0.80;;;;;;;16.49;31.19;101538.00;109512;1251;74740;-55
2023/10/11 10:09:23;;;;;;;2.50;1.00;;;;;;;16.52;30.65;101534.95;109452;1251;66935;-55
2023/10/11 10:12:09;;;;;;;1.70;0.70;;;;;;;16.24;30.85;101538.11;109445;1254;73710;-55
2023/10/11 10:14:37;;;;;;;1.80;0.70;;;;;;;16.18;31.16;101531.10;109381;1251;62103;-54
2023/10/11 10:17:12;;;;;;;14.40;8.10;;;;;;;16.33;31.98;101534.34;109382;1251;60010;-57
2023/10/11 10:19:42;;;;;;;5.80;1.50;;;;;;;16.58;31.68;101534.17;109465;1251;75160;-55
2023/10/11 10:22:15;;;;;;;2.60;1.20;;;;;;;16.68;30.97;101532.02;109446;1251;65691;-55
2023/10/11 10:24:46;;;;;;;2.60;1.30;;;;;;;16.54;30.74;101533.25;109458;1251;72672;-56
2023/10/11 10:27:23;;;;;;;1.80;0.90;;;;;;;16.44;30.45;101538.53;109436;1251;60191;-55
2023/10/11 10:29:55;;;;;;;1.30;0.60;;;;;;;16.42;30.23;101536.23;109444;1251;60060;-54
2023/10/11 10:32:23;;;;;;;18.50;9.90;;;;;;;16.44;30.72;101533.02;109474;1251;74690;-55
2023/10/11 10:35:18;;;;;;;4.30;1.80;;;;;;;16.54;30.71;101535.56;109428;1251;66178;-55
2023/10/11 10:37:46;;;;;;;2.50;1.10;;;;;;;16.70;30.97;101531.44;109399;1252;72720;-55
2023/10/11 10:40:26;;;;;;;2.00;1.00;;;;;;;16.89;30.90;101530.60;109445;1251;62414;-55
2023/10/11 10:43:20;;;;;;;1.80;0.80;;;;;;;17.06;29.99;101532.29;109468;1251;59076;-57
2023/10/11 10:45:49;;;;;;;3.10;0.80;;;;;;;16.96;30.01;101531.19;109414;1253;74748;-58
2023/10/11 10:48:23;;;;;;;2.30;1.00;;;;;;;16.80;30.13;101534.29;109402;1253;67447;-55
2023/10/11 10:51:07;;;;;;;2.60;1.20;;;;;;;16.55;29.34;101533.14;109387;1253;74821;-56
2023/10/11 10:53:44;;;;;;;2.40;1.10;;;;;;;16.27;29.58;101532.64;109166;1252;62888;-55
2023/10/11 10:56:25;;;;;;;2.00;0.90;;;;;;;16.11;29.90;101533.88;109272;1253;60511;-56
2023/10/11 10:59:07;;;;;;;2.20;0.80;;;;;;;15.95;30.36;101533.95;109450;1251;75742;-55
2023/10/11 11:01:35;;;;;;;2.20;1.00;;;;;;;16.05;30.38;101531.66;109505;1251;65813;-55
2023/10/11 11:04:07;;;;;;;2.70;1.10;;;;;;;15.97;30.61;101526.20;109514;1251;73765;-54
2023/10/11 11:06:46;;;;;;;4.30;1.60;;;;;;;15.68;30.87;101532.80;109437;1251;58906;-56
2023/10/11 11:09:27;;;;;;;3.00;1.10;;;;;;;15.42;30.81;101541.83;109472;1251;62287;-59
2023/10/11 11:12:09;;;;;;;3.90;1.70;;;;;;;15.24;31.24;101544.05;109486;1251;75660;-57
2023/10/11 11:14:37;;;;;;;3.80;1.20;;;;;;;15.21;31.83;101543.69;109377;1251;65547;-56
2023/10/11 11:17:09;;;;;;;2.10;1.00;;;;;;;15.27;32.18;101547.98;109294;1257;72716;-56
2023/10/11 11:19:37;;;;;;;3.60;1.10;;;;;;;15.25;31.85;101545.08;109412;1255;59004;-54
2023/10/11 11:22:19;;;;;;;2.80;1.10;;;;;;;15.12;31.85;101544.98;109179;1254;60142;-55
2023/10/11 11:24:52;;;;;;;2.30;1.00;;;;;;;15.07;31.48;101551.12;109202;1253;75301;-55
2023/10/11 11:27:28;;;;;;;2.50;1.00;;;;;;;15.05;30.95;101554.84;109124;1253;67896;-54
2023/10/11 11:30:04;;;;;;;2.30;1.00;;;;;;;14.98;30.87;101550.23;109098;1253;74731;-55
2023/10/11 11:32:39;;;;;;;2.30;1.20;;;;;;;14.88;31.15;101553.73;109062;1253;60088;-55
2023/10/11 11:35:15;;;;;;;1.90;0.90;;;;;;;14.72;31.61;101555.38;109117;1253;61037;-55
2023/10/11 11:38:05;;;;;;;2.40;1.00;;;;;;;14.72;32.05;101551.80;109129;1253;77245;-56
2023/10/11 11:40:47;;;;;;;2.40;1.20;;;;;;;14.83;32.03;101549.70;109309;1252;65217;-56
2023/10/11 11:43:19;;;;;;;2.10;0.90;;;;;;;14.91;32.41;101550.02;109217;1256;73278;-55
2023/10/11 11:45:56;;;;;;;2.00;0.90;;;;;;;15.03;32.36;101546.84;109208;1255;61173;-55
2023/10/11 11:48:25;;;;;;;2.10;0.90;;;;;;;15.18;32.59;101550.20;109401;1253;62667;-55
2023/10/11 11:50:56;;;;;;;1.90;0.90;;;;;;;15.23;32.40;101550.84;109195;1253;73992;-55
2023/10/11 11:53:25;;;;;;;3.20;1.20;;;;;;;15.18;32.65;101552.21;109270;1253;65865;-55
2023/10/11 11:55:53;;;;;;;1.80;0.90;;;;;;;15.18;32.73;101554.48;109384;1253;71767;-54
2023/10/11 11:58:20;;;;;;;1.80;0.70;;;;;;;15.16;32.34;101553.73;109361;1253;60095;-54
2023/10/11 12:03:36;;;;;;;2.80;0.90;;;;;;;14.83;31.97;101551.71;109261;1253;73376;-54
2023/10/11 12:06:21;;;;;;;3.50;1.30;;;;;;;14.65;31.90;101556.70;109239;1253;66099;-54
2023/10/11 12:08:57;;;;;;;2.10;1.00;;;;;;;14.53;32.60;101557.35;109237;1253;75026;-55
2023/10/11 12:11:29;;;;;;;2.70;0.90;;;;;;;14.61;32.42;101560.30;109361;1253;62562;-54
2023/10/11 12:13:58;;;;;;;;;;;;;;;14.61;32.03;101559.81;109406;1258;60340;-55
2023/10/11 12:16:27;;;;;;;1.70;0.80;;;;;;;14.52;31.86;101556.67;109233;1259;77511;-55
2023/10/11 12:18:59;;;;;;;1.60;0.70;;;;;;;14.39;31.47;101555.84;109242;1253;69910;-55